KMJX/MJX METAR and TAF weather

Enter ICAO airport designator
Station Type Date Time Source
KMJX METAR 2019/04/25 15:56 UTC NOAA

KMJX 251556Z AUTO 14006KT 10SM BKN100 15/07 A2998 RMK AO2 SLP158 T01500067


Station Type Date Time Source
KMJX Decoded METAR 2019/04/25 15:56 UTC NOAA

Station name not available
Apr 25, 2019 - 11:56 AM EDT / 2019.04.25 1556 UTC
Wind: from the SE (140 degrees) at 7 MPH (6 KT):0
Visibility: 10 mile(s):0
Sky conditions: mostly cloudy
Temperature: 59.0 F (15.0 C)
Dew Point: 44.1 F (6.7 C)
Relative Humidity: 57%
Pressure (altimeter): 29.98 in. Hg (1015 hPa)
ob: KMJX 251556Z AUTO 14006KT 10SM BKN100 15/07 A2998 RMK AO2 SLP158 T01500067
cycle: 16

Station Type Date Time Source
KMJX TAF UTC NOAA

Error!

Example: see airport list